Time;durP1;ratioP1;P1;durP2;ratioP2;P2;SDS_P1;SDS_P2;PMS_P1;PMS_P2;Temp;Humidity;BMP_temperature;BMP_pressure;BME280_temperature;BME280_humidity;BME280_pressure;Samples;Min_cycle;Max_cycle;Signal;HPM_P1;HPM_P2
2023/03/31 00:01:34;;;;;;;4.03;1.30;;;;;;;15.02;45.99;94465.97;5041565;28;20021;-90
2023/03/31 00:04:03;;;;;;;12.82;1.70;;;;;;;14.93;46.46;94466.63;5038376;28;20167;-90
2023/03/31 00:06:31;;;;;;;8.52;1.70;;;;;;;15.15;46.18;94477.59;5038211;28;20435;-90
2023/03/31 00:09:00;;;;;;;9.07;2.00;;;;;;;14.93;46.48;94457.94;5025252;28;20123;-92
2023/03/31 00:11:26;;;;;;;10.98;1.80;;;;;;;14.73;47.91;94456.47;5042063;28;20025;-90
2023/03/31 00:13:52;;;;;;;10.63;1.90;;;;;;;14.74;47.33;94458.00;5025439;28;20025;-90
2023/03/31 00:16:18;;;;;;;6.70;1.48;;;;;;;15.13;46.87;94465.47;5021796;28;20021;-91
2023/03/31 00:18:46;;;;;;;5.75;1.70;;;;;;;15.36;46.17;94462.94;5022485;28;20026;-91
2023/03/31 00:21:13;;;;;;;7.15;2.10;;;;;;;15.30;46.33;94463.31;5002438;28;20032;-91
2023/03/31 00:23:39;;;;;;;6.70;1.80;;;;;;;15.53;46.21;94464.16;5003269;28;20026;-91
2023/03/31 00:26:05;;;;;;;10.23;1.73;;;;;;;15.63;46.08;94465.81;5017635;28;20029;-90
2023/03/31 00:28:51;;;;;;;8.77;2.13;;;;;;;15.69;45.37;94467.25;5011964;28;20030;-90
2023/03/31 00:31:17;;;;;;;9.32;1.52;;;;;;;15.54;45.22;94481.56;5021454;28;20029;-91
2023/03/31 00:33:42;;;;;;;3.95;1.30;;;;;;;15.82;44.39;94468.31;5005041;28;20039;-92
2023/03/31 00:36:08;;;;;;;12.10;2.10;;;;;;;15.54;46.01;94477.06;5005109;28;20075;-91
2023/03/31 00:38:33;;;;;;;5.35;1.98;;;;;;;15.68;45.71;94473.63;5021143;28;20029;-92
2023/03/31 00:40:59;;;;;;;7.03;1.67;;;;;;;15.16;46.37;94477.31;5021028;28;20030;-92
2023/03/31 00:43:25;;;;;;;5.97;1.58;;;;;;;15.26;46.97;94474.44;5005099;28;20029;-91
2023/03/31 00:45:51;;;;;;;9.20;1.85;;;;;;;14.99;46.67;94485.78;5038666;28;20508;-91
2023/03/31 00:48:17;;;;;;;6.20;1.40;;;;;;;15.22;46.85;94480.63;5004985;28;20030;-91
2023/03/31 00:50:48;;;;;;;6.03;1.38;;;;;;;15.38;46.02;94481.09;5021377;28;20108;-90
2023/03/31 00:53:16;;;;;;;5.20;1.58;;;;;;;15.46;45.30;94480.41;5010236;28;20430;-90
2023/03/31 00:55:49;;;;;;;8.40;1.55;;;;;;;15.35;45.36;94482.47;5024249;28;20342;-90
2023/03/31 00:58:19;;;;;;;5.00;1.38;;;;;;;15.04;45.10;94472.47;5037348;28;20120;-91
2023/03/31 01:00:48;;;;;;;5.57;1.30;;;;;;;14.97;45.96;94464.97;5039323;28;20028;-90
2023/03/31 01:03:14;;;;;;;7.93;1.60;;;;;;;15.18;45.48;94455.88;5020966;28;20123;-91
2023/03/31 01:05:46;;;;;;;10.88;1.33;;;;;;;15.40;44.33;94463.88;5022458;28;20427;-91
2023/03/31 01:08:12;;;;;;;10.43;1.67;;;;;;;15.09;45.14;94450.50;5020851;28;20428;-89
2023/03/31 01:10:45;;;;;;;11.32;1.70;;;;;;;15.02;44.88;94442.97;5038308;28;20374;-91
2023/03/31 01:13:15;;;;;;;6.55;1.50;;;;;;;15.09;44.71;94442.59;5021043;28;20032;-91
2023/03/31 01:15:42;;;;;;;6.85;1.33;;;;;;;15.16;44.67;94429.00;5022083;28;20033;-90
2023/03/31 01:18:09;;;;;;;16.75;1.92;;;;;;;14.91;45.03;94420.50;5036979;28;20120;-90
2023/03/31 01:20:40;;;;;;;7.05;1.70;;;;;;;14.65;45.53;94426.25;5021330;28;20328;-90
2023/03/31 01:23:44;;;;;;;11.80;2.10;;;;;;;15.11;45.06;94428.03;5058244;28;20413;-90
2023/03/31 01:26:22;;;;;;;9.45;2.08;;;;;;;15.37;44.93;94416.19;5036854;28;20073;-90
2023/03/31 01:29:07;;;;;;;5.18;1.38;;;;;;;15.60;44.48;94419.66;5039646;28;20048;-90
2023/03/31 01:31:53;;;;;;;11.93;1.38;;;;;;;15.05;44.86;94426.56;5057767;28;20047;-92
2023/03/31 01:34:57;;;;;;;10.85;1.75;;;;;;;15.73;44.34;94419.91;5020466;28;20410;-89
2023/03/31 01:37:40;;;;;;;16.48;2.05;;;;;;;15.55;45.60;94419.75;5023890;28;20028;-91
2023/03/31 01:40:24;;;;;;;10.40;1.52;;;;;;;14.77;46.57;94418.63;5057590;28;20469;-90
2023/03/31 01:43:06;;;;;;;7.20;1.80;;;;;;;15.02;47.43;94407.91;5057618;28;20035;-90
2023/03/31 01:46:08;;;;;;;5.45;1.13;;;;;;;15.21;46.23;94405.16;5036379;28;20485;-90
2023/03/31 01:48:48;;;;;;;6.55;1.70;;;;;;;15.29;46.07;94407.09;5020593;28;20065;-90
2023/03/31 01:51:38;;;;;;;9.35;2.20;;;;;;;15.17;45.74;94415.53;5020246;28;20040;-91
2023/03/31 01:54:31;;;;;;;8.98;1.77;;;;;;;15.05;46.05;94402.81;5023325;28;20033;-90
2023/03/31 01:57:06;;;;;;;10.90;1.77;;;;;;;14.84;47.58;94400.59;5039633;28;20029;-91
2023/03/31 01:59:58;;;;;;;10.25;1.60;;;;;;;14.75;47.93;94391.00;5057351;28;20036;-90
2023/03/31 02:02:30;;;;;;;11.43;2.17;;;;;;;14.55;48.83;94387.63;5009662;28;20041;-90
2023/03/31 02:04:59;;;;;;;6.05;1.42;;;;;;;14.69;48.55;94382.38;5023079;28;20036;-91
2023/03/31 02:07:31;;;;;;;8.77;1.83;;;;;;;14.78;47.82;94375.41;5023152;28;20430;-90
2023/03/31 02:09:58;;;;;;;13.32;1.98;;;;;;;14.44;48.12;94360.69;5023104;28;20431;-91
2023/03/31 02:12:26;;;;;;;7.50;2.15;;;;;;;14.47;47.97;94365.38;5023004;28;20029;-90
2023/03/31 02:14:54;;;;;;;12.30;2.55;;;;;;;14.56;47.12;94363.63;5022966;28;20070;-90
2023/03/31 02:17:29;;;;;;;7.68;1.80;;;;;;;14.52;46.91;94367.13;5035679;28;20084;-90
2023/03/31 02:19:56;;;;;;;8.43;1.60;;;;;;;14.63;46.70;94351.91;5023712;28;20091;-91
2023/03/31 02:22:23;;;;;;;10.38;1.92;;;;;;;14.21;48.22;94347.38;5019612;28;20036;-91
2023/03/31 02:24:50;;;;;;;11.80;1.90;;;;;;;14.49;47.92;94344.78;5038172;28;20080;-91
2023/03/31 02:27:22;;;;;;;11.88;2.08;;;;;;;13.98;49.09;94331.44;5019580;28;20505;-90
2023/03/31 02:29:48;;;;;;;11.07;1.75;;;;;;;13.94;49.65;94329.66;5021823;28;20030;-90
2023/03/31 02:32:25;;;;;;;10.20;1.83;;;;;;;14.41;47.93;94334.91;5035792;28;20135;-89
2023/03/31 02:34:50;;;;;;;7.13;1.40;;;;;;;13.91;48.28;94333.63;5038599;28;20033;-90
2023/03/31 02:37:16;;;;;;;19.30;2.33;;;;;;;13.93;48.42;94330.72;5035818;28;20458;-91
2023/03/31 02:39:44;;;;;;;14.95;1.65;;;;;;;14.09;47.63;94333.91;5037056;28;20034;-91
2023/03/31 02:42:09;;;;;;;13.07;2.15;;;;;;;13.79;47.49;94333.34;5035682;28;20025;-90
2023/03/31 02:44:36;;;;;;;6.50;1.85;;;;;;;13.93;47.68;94352.59;5019753;28;20029;-90
2023/03/31 02:47:03;;;;;;;6.25;1.30;;;;;;;14.12;47.74;94346.47;5019269;28;20037;-89
2023/03/31 02:49:29;;;;;;;12.68;1.73;;;;;;;13.86;47.69;94357.44;5019269;28;20040;-90
2023/03/31 02:52:00;;;;;;;4.50;1.27;;;;;;;14.10;47.11;94349.41;5019163;28;20328;-90
2023/03/31 02:54:26;;;;;;;10.85;1.85;;;;;;;14.02;46.78;94360.63;5035939;28;20033;-90
2023/03/31 02:57:09;;;;;;;9.23;2.08;;;;;;;14.04;47.05;94373.47;5055851;28;20032;-89
2023/03/31 02:59:38;;;;;;;;;;;;;;;14.62;45.59;94374.84;5036650;28;20033;-90
2023/03/31 03:02:27;;;;;;;14.82;2.10;;;;;;;14.51;45.91;94366.38;5056473;28;20199;-90
2023/03/31 03:05:19;;;;;;;8.55;1.70;;;;;;;14.11;47.26;94361.50;5038451;28;20024;-89
2023/03/31 03:08:05;;;;;;;10.40;1.60;;;;;;;14.46;46.12;94360.41;5021325;28;20034;-90
2023/03/31 03:10:49;;;;;;;6.38;1.60;;;;;;;14.53;46.87;94355.50;5035778;28;20034;-90
2023/03/31 03:13:20;;;;;;;3.42;1.85;;;;;;;14.55;46.36;94348.88;5035391;28;20033;-91
2023/03/31 03:16:02;;;;;;;11.40;1.95;;;;;;;14.42;46.45;94350.44;5037465;28;20025;-90
2023/03/31 03:18:28;;;;;;;7.80;2.30;;;;;;;14.33;46.84;94346.13;5019125;28;20525;-90
2023/03/31 03:20:53;;;;;;;4.32;1.90;;;;;;;14.39;46.82;94340.47;5022098;28;20124;-90
2023/03/31 03:23:21;;;;;;;7.43;2.28;;;;;;;13.90;48.18;94336.59;5035196;28;20032;-91
2023/03/31 03:25:47;;;;;;;9.73;1.83;;;;;;;13.87;48.17;94334.53;5021196;28;20033;-90
2023/03/31 03:28:12;;;;;;;5.97;1.92;;;;;;;14.13;47.72;94330.41;5018875;28;20036;-90
2023/03/31 03:30:38;;;;;;;7.05;2.20;;;;;;;14.28;47.50;94320.66;5021585;28;20080;-91
2023/03/31 03:33:05;;;;;;;10.90;1.80;;;;;;;14.49;47.34;94313.16;5022751;28;20032;-91
2023/03/31 03:35:31;;;;;;;12.48;1.80;;;;;;;14.30;47.44;94323.78;5022852;28;20453;-90
2023/03/31 03:37:57;;;;;;;10.20;1.95;;;;;;;14.42;47.13;94329.34;5025777;28;20028;-90
2023/03/31 03:40:22;;;;;;;10.70;1.92;;;;;;;14.46;47.27;94323.50;5042078;28;20029;-90
2023/03/31 03:42:47;;;;;;;4.40;1.60;;;;;;;14.42;47.28;94325.94;5025829;28;20035;-90
2023/03/31 03:45:13;;;;;;;7.40;1.90;;;;;;;14.67;46.76;94322.03;5019936;28;20403;-90
2023/03/31 03:47:59;;;;;;;8.40;2.20;;;;;;;15.11;47.18;94311.94;5046737;28;20036;-91
2023/03/31 03:50:24;;;;;;;11.70;1.95;;;;;;;14.61;48.30;94314.50;5026151;28;20454;-90
2023/03/31 03:52:50;;;;;;;10.10;1.63;;;;;;;14.64;48.46;94306.03;5031491;28;20041;-91
2023/03/31 03:55:16;;;;;;;6.80;1.80;;;;;;;14.03;49.66;94306.84;5031339;28;20030;-90
2023/03/31 03:57:42;;;;;;;9.68;1.80;;;;;;;14.36;49.02;94298.88;5039118;28;20171;-90
2023/03/31 04:00:14;;;;;;;7.25;2.08;;;;;;;14.00;50.42;94291.63;5030715;28;20464;-91
2023/03/31 04:02:40;;;;;;;9.07;2.03;;;;;;;13.94;50.54;94301.47;5023124;28;20040;-91
2023/03/31 04:05:06;;;;;;;9.25;1.85;;;;;;;14.27;49.15;94304.06;5037409;28;20033;-90
2023/03/31 04:07:32;;;;;;;9.43;1.90;;;;;;;14.25;48.92;94300.94;5021551;28;20025;-90
2023/03/31 04:09:57;;;;;;;11.50;1.85;;;;;;;14.34;49.52;94305.50;5020759;28;20032;-92
2023/03/31 04:12:22;;;;;;;12.43;2.58;;;;;;;14.44;48.53;94291.38;5020071;28;20075;-91
2023/03/31 04:14:48;;;;;;;7.88;1.67;;;;;;;14.56;48.55;94289.00;5039451;28;20033;-89
2023/03/31 04:17:14;;;;;;;14.93;1.90;;;;;;;14.62;48.78;94281.78;5021056;28;20025;-91
2023/03/31 04:19:41;;;;;;;14.52;2.22;;;;;;;14.67;48.03;94276.44;5022018;28;20032;-90
2023/03/31 04:22:10;;;;;;;7.75;1.77;;;;;;;14.82;48.07;94272.72;5036932;28;20354;-91
2023/03/31 04:24:37;;;;;;;13.52;1.77;;;;;;;14.78;48.37;94277.81;5021755;28;20338;-91
2023/03/31 04:27:06;;;;;;;5.22;1.40;;;;;;;14.68;48.65;94276.13;5020691;28;20029;-90
2023/03/31 04:29:32;;;;;;;7.28;2.10;;;;;;;14.68;48.81;94278.75;5021186;28;20030;-90
2023/03/31 04:31:58;;;;;;;8.13;1.88;;;;;;;14.65;49.27;94286.50;5020540;28;20387;-90
2023/03/31 04:34:34;;;;;;;8.82;1.52;;;;;;;14.75;48.52;94286.28;5020361;28;20029;-90
2023/03/31 04:37:01;;;;;;;9.00;1.80;;;;;;;14.55;49.00;94290.09;5017410;28;20070;-90
2023/03/31 04:39:29;;;;;;;9.52;1.90;;;;;;;14.37;49.37;94282.00;5040574;28;20059;-90
2023/03/31 04:41:56;;;;;;;7.72;1.73;;;;;;;14.27;49.77;94290.09;5040061;28;20025;-91
2023/03/31 04:44:22;;;;;;;8.63;1.98;;;;;;;13.90;50.95;94281.28;5020575;28;20056;-90
2023/03/31 04:46:47;;;;;;;8.70;1.88;;;;;;;14.24;50.37;94270.38;4988984;28;1479051;-90
2023/03/31 04:49:13;;;;;;;9.43;1.70;;;;;;;14.05;51.57;94273.09;5037587;28;20064;-89
2023/03/31 04:51:38;;;;;;;10.88;1.42;;;;;;;14.39;50.06;94274.56;5038630;28;20033;-90
2023/03/31 04:54:03;;;;;;;11.02;2.20;;;;;;;14.54;49.36;94278.78;5021093;28;20037;-91
2023/03/31 04:56:29;;;;;;;7.78;1.98;;;;;;;14.49;50.02;94268.34;5020894;28;20030;-91
2023/03/31 04:58:54;;;;;;;10.32;2.17;;;;;;;14.57;48.96;94266.88;5021102;28;20416;-89
2023/03/31 05:01:20;;;;;;;7.38;1.73;;;;;;;14.20;50.49;94261.50;5021216;28;20102;-90
2023/03/31 05:03:46;;;;;;;7.78;2.00;;;;;;;14.17;51.27;94263.94;5023026;28;20087;-90
2023/03/31 05:06:13;;;;;;;8.60;2.08;;;;;;;14.26;50.86;94249.78;5037160;28;20116;-89
2023/03/31 05:09:03;;;;;;;12.27;1.63;;;;;;;14.73;50.00;94248.13;5038454;28;20411;-90
2023/03/31 05:11:28;;;;;;;11.43;1.95;;;;;;;14.61;50.06;94243.31;5058106;28;20389;-88
2023/03/31 05:13:53;;;;;;;8.38;1.55;;;;;;;14.64;49.98;94243.50;5040122;28;20028;-90
2023/03/31 05:16:19;;;;;;;6.45;1.45;;;;;;;14.60;49.29;94247.81;5037041;28;20415;-89
2023/03/31 05:18:45;;;;;;;7.35;1.95;;;;;;;14.48;49.89;94248.31;5039131;28;20030;-88
2023/03/31 05:21:16;;;;;;;12.27;2.05;;;;;;;14.35;50.72;94249.88;5037017;28;20056;-88
2023/03/31 05:23:42;;;;;;;11.55;1.80;;;;;;;14.22;51.04;94245.41;5027768;28;20065;-89
2023/03/31 05:26:07;;;;;;;9.43;2.42;;;;;;;14.22;50.15;94250.66;5000770;28;20038;-89
2023/03/31 05:28:34;;;;;;;9.13;1.73;;;;;;;14.65;49.03;94246.94;5001431;28;20034;-90
2023/03/31 05:31:00;;;;;;;9.43;2.10;;;;;;;14.41;49.59;94245.28;5016822;28;20030;-89
2023/03/31 05:33:27;;;;;;;14.25;2.10;;;;;;;14.71;48.94;94248.38;5016877;28;20029;-89
2023/03/31 05:35:52;;;;;;;9.82;1.60;;;;;;;14.67;48.74;94247.41;5003972;28;20127;-89
2023/03/31 05:38:18;;;;;;;10.68;1.45;;;;;;;14.68;48.59;94238.44;5017310;28;20069;-89
2023/03/31 05:40:43;;;;;;;8.70;2.05;;;;;;;14.91;49.11;94231.38;5036237;28;20030;-88
2023/03/31 05:43:08;;;;;;;13.45;2.20;;;;;;;14.34;50.73;94239.63;5022275;28;20029;-88
2023/03/31 05:45:34;;;;;;;8.73;1.77;;;;;;;14.09;50.78;94253.00;5036925;28;20045;-88
2023/03/31 05:48:00;;;;;;;7.70;1.70;;;;;;;14.27;50.88;94246.09;5036649;28;20032;-89
2023/03/31 05:50:25;;;;;;;10.35;1.83;;;;;;;14.86;49.64;94238.63;5036513;28;20026;-88
2023/03/31 05:52:51;;;;;;;7.82;1.65;;;;;;;14.96;49.92;94241.03;5038679;28;20040;-89
2023/03/31 05:55:17;;;;;;;18.27;3.13;;;;;;;14.97;50.55;94245.22;5020220;28;20061;-89
2023/03/31 05:57:43;;;;;;;20.77;3.70;;;;;;;15.25;50.70;94255.69;5055793;28;20423;-90
2023/03/31 06:00:10;;;;;;;13.27;3.00;;;;;;;15.37;51.22;94248.03;5036059;28;20039;-88
2023/03/31 06:02:35;;;;;;;9.27;2.03;;;;;;;15.80;49.44;94243.31;5037074;28;20034;-89
2023/03/31 06:05:01;;;;;;;11.35;2.65;;;;;;;15.83;47.62;94237.41;5036523;28;20104;-90
2023/03/31 06:07:26;;;;;;;10.60;2.42;;;;;;;16.08;47.43;94224.66;5053157;28;20033;-89
2023/03/31 06:09:52;;;;;;;12.35;2.70;;;;;;;15.80;48.66;94232.75;5039125;28;20028;-90
2023/03/31 06:12:17;;;;;;;6.93;2.05;;;;;;;15.78;48.67;94251.53;5019326;28;20041;-90
2023/03/31 06:14:43;;;;;;;13.77;2.53;;;;;;;15.87;48.96;94234.94;5021321;28;20033;-90
2023/03/31 06:17:08;;;;;;;19.42;3.33;;;;;;;15.99;47.97;94224.59;5035873;28;20037;-89
2023/03/31 06:19:33;;;;;;;9.65;2.28;;;;;;;15.67;49.27;94234.38;5020264;28;20052;-89
2023/03/31 06:21:59;;;;;;;10.15;2.25;;;;;;;16.03;48.94;94232.69;5036006;28;20350;-90
2023/03/31 06:24:24;;;;;;;9.60;1.90;;;;;;;16.25;48.26;94234.50;5035756;28;20036;-89
2023/03/31 06:26:50;;;;;;;6.50;2.00;;;;;;;16.50;48.77;94240.16;5038772;28;20041;-88
2023/03/31 06:29:15;;;;;;;15.27;2.35;;;;;;;16.35;50.05;94239.50;5019602;28;20033;-88
2023/03/31 06:31:41;;;;;;;13.45;2.80;;;;;;;16.71;49.73;94234.28;5021047;28;20119;-88
2023/03/31 06:34:06;;;;;;;10.80;2.03;;;;;;;16.91;48.76;94240.84;5051513;28;20091;-87
2023/03/31 06:36:31;;;;;;;13.32;2.53;;;;;;;16.48;49.99;94239.69;5004197;28;20025;-89
2023/03/31 06:38:57;;;;;;;12.35;2.03;;;;;;;17.20;49.23;94234.19;5003006;28;20068;-89
2023/03/31 06:41:22;;;;;;;12.73;1.95;;;;;;;17.02;48.33;94233.44;5019251;28;20136;-88
2023/03/31 06:43:48;;;;;;;9.00;1.98;;;;;;;17.09;48.56;94239.03;5019366;28;20033;-88
2023/03/31 06:46:13;;;;;;;13.18;2.85;;;;;;;17.25;47.68;94226.09;5002930;28;20042;-89
2023/03/31 06:48:40;;;;;;;15.18;2.40;;;;;;;17.20;47.34;94221.75;5002949;28;20084;-89
2023/03/31 06:51:06;;;;;;;9.80;2.15;;;;;;;17.43;47.42;94220.78;5035577;28;20025;-88
2023/03/31 06:53:32;;;;;;;13.18;2.53;;;;;;;17.83;46.29;94217.88;5019634;28;20033;-89
2023/03/31 06:55:58;;;;;;;14.65;2.30;;;;;;;18.18;46.38;94222.31;5019460;28;20029;-88
2023/03/31 06:58:23;;;;;;;14.93;2.10;;;;;;;17.76;47.97;94209.63;5035831;28;20083;-88
2023/03/31 07:00:49;;;;;;;11.25;2.38;;;;;;;18.36;46.66;94204.44;5021471;28;20386;-90
2023/03/31 07:03:21;;;;;;;11.00;2.42;;;;;;;18.01;47.41;94208.00;5035341;28;20423;-89
2023/03/31 07:05:53;;;;;;;16.27;2.63;;;;;;;18.29;48.29;94204.97;5026086;28;20040;-89
2023/03/31 07:08:20;;;;;;;16.40;2.50;;;;;;;18.58;46.17;94190.13;5039434;28;20025;-89
2023/03/31 07:10:47;;;;;;;17.98;2.38;;;;;;;18.43;46.22;94180.84;5041519;28;20268;-89
2023/03/31 07:13:14;;;;;;;10.02;1.90;;;;;;;18.94;46.35;94164.09;5039856;28;20037;-90
2023/03/31 07:15:40;;;;;;;11.20;2.22;;;;;;;19.13;46.51;94154.91;5041049;28;20021;-89
2023/03/31 07:18:05;;;;;;;13.82;2.15;;;;;;;18.93;46.18;94152.69;5060593;28;20418;-88
2023/03/31 07:20:31;;;;;;;7.85;2.10;;;;;;;18.72;45.26;94159.88;5039654;28;20030;-88
2023/03/31 07:22:57;;;;;;;13.82;2.35;;;;;;;18.88;45.93;94157.41;5039350;28;20028;-88
2023/03/31 07:25:23;;;;;;;9.82;2.25;;;;;;;18.68;45.93;94162.44;5022737;28;20415;-88
2023/03/31 07:27:48;;;;;;;9.88;1.92;;;;;;;18.55;46.76;94143.00;5025357;28;20129;-89
2023/03/31 07:30:16;;;;;;;10.88;2.15;;;;;;;18.51;47.34;94144.75;5039168;28;20342;-89
2023/03/31 07:32:42;;;;;;;11.15;2.10;;;;;;;19.27;45.88;94144.78;5040904;28;20132;-88
2023/03/31 07:35:09;;;;;;;11.40;2.20;;;;;;;19.58;46.06;94138.19;5022828;28;20057;-89
2023/03/31 07:37:35;;;;;;;14.98;2.40;;;;;;;18.57;46.73;94132.06;5023358;28;20025;-89
2023/03/31 07:40:01;;;;;;;16.55;2.25;;;;;;;18.59;47.25;94133.31;5060093;28;20090;-89
2023/03/31 07:42:26;;;;;;;9.25;1.98;;;;;;;19.28;46.20;94132.25;5022715;28;20124;-89
2023/03/31 07:44:52;;;;;;;15.43;2.30;;;;;;;19.39;45.07;94129.97;5041673;28;20058;-89
2023/03/31 07:47:17;;;;;;;17.67;2.50;;;;;;;20.10;44.21;94129.94;5038994;28;20079;-88
2023/03/31 07:49:42;;;;;;;8.02;1.90;;;;;;;20.09;43.27;94118.53;5040477;28;20097;-89
2023/03/31 07:52:08;;;;;;;13.68;2.30;;;;;;;19.77;44.17;94112.94;5022839;28;20092;-90
2023/03/31 07:54:33;;;;;;;10.20;2.03;;;;;;;19.94;43.43;94109.34;5022622;28;20029;-90
2023/03/31 07:57:01;;;;;;;12.60;2.33;;;;;;;19.53;45.94;94106.53;5025517;28;20024;-89
2023/03/31 07:59:26;;;;;;;10.05;1.83;;;;;;;20.20;42.86;94105.56;5022698;28;20048;-88
2023/03/31 08:01:52;;;;;;;12.00;2.17;;;;;;;20.80;41.76;94106.81;5025240;28;20423;-89
2023/03/31 08:04:17;;;;;;;8.80;1.95;;;;;;;19.87;44.57;94101.09;5022267;28;20025;-90
2023/03/31 08:06:42;;;;;;;12.57;1.80;;;;;;;20.52;42.62;94107.59;5039873;28;20435;-90
2023/03/31 08:09:08;;;;;;;16.23;2.10;;;;;;;20.76;43.36;94104.09;5038597;28;20029;-88
2023/03/31 08:11:33;;;;;;;12.88;1.98;;;;;;;20.41;43.88;94113.38;5022515;28;20026;-89
2023/03/31 08:13:59;;;;;;;10.07;1.70;;;;;;;20.39;42.33;94098.84;5022166;28;20095;-88
2023/03/31 08:16:25;;;;;;;13.52;1.73;;;;;;;20.92;40.80;94098.81;5021358;28;20025;-89
2023/03/31 08:18:50;;;;;;;8.73;1.88;;;;;;;21.24;39.19;94104.22;5041142;28;20032;-89
2023/03/31 08:21:15;;;;;;;12.45;2.08;;;;;;;21.56;38.87;94101.59;5021918;28;20052;-89
2023/03/31 08:23:41;;;;;;;9.43;2.30;;;;;;;20.65;40.76;94103.78;5039733;28;20025;-89
2023/03/31 08:26:17;;;;;;;10.50;2.40;;;;;;;21.51;39.44;94112.50;5037857;28;20061;-89
2023/03/31 08:28:43;;;;;;;9.57;1.90;;;;;;;22.00;40.63;94107.94;5023700;28;20386;-89
2023/03/31 08:31:09;;;;;;;9.30;1.52;;;;;;;21.19;39.57;94113.25;5021719;28;20029;-88
2023/03/31 08:33:36;;;;;;;14.07;1.90;;;;;;;20.96;39.89;94114.91;5038679;28;20033;-89
2023/03/31 08:36:07;;;;;;;10.57;1.65;;;;;;;21.19;39.52;94115.91;5038337;28;20131;-89
2023/03/31 08:38:37;;;;;;;10.52;2.15;;;;;;;22.11;40.05;94129.53;5038268;28;20086;-89
2023/03/31 08:41:05;;;;;;;7.28;1.63;;;;;;;21.57;40.74;94127.13;5038390;28;20074;-90
2023/03/31 08:43:39;;;;;;;12.82;2.13;;;;;;;21.98;39.75;94108.28;5037643;28;20039;-89
2023/03/31 08:46:05;;;;;;;9.43;2.10;;;;;;;20.97;41.91;94101.25;5037703;28;20124;-90
2023/03/31 08:48:44;;;;;;;14.15;1.73;;;;;;;22.22;40.85;94101.19;5037919;28;20328;-89
2023/03/31 08:51:27;;;;;;;12.48;2.00;;;;;;;21.60;40.06;94099.00;5021880;28;20338;-89
2023/03/31 08:54:16;;;;;;;13.35;2.50;;;;;;;22.45;40.36;94087.16;5040450;28;20030;-89
2023/03/31 08:56:45;;;;;;;15.85;2.42;;;;;;;21.11;41.07;94078.78;5039249;28;20021;-90
2023/03/31 08:59:16;;;;;;;8.80;1.90;;;;;;;22.40;40.01;94074.91;5037374;28;20477;-90
2023/03/31 09:01:49;;;;;;;15.30;2.22;;;;;;;22.10;40.56;94072.75;5056486;28;20029;-90
2023/03/31 09:04:24;;;;;;;5.32;1.70;;;;;;;22.29;40.18;94066.66;5020926;28;20029;-90
2023/03/31 09:07:01;;;;;;;9.55;1.90;;;;;;;22.16;40.44;94071.34;5057517;28;20444;-89
2023/03/31 09:10:03;;;;;;;6.63;1.90;;;;;;;22.84;39.55;94081.13;5058582;28;20033;-89
2023/03/31 09:12:28;;;;;;;11.93;2.13;;;;;;;22.34;39.62;94076.28;5058285;28;20029;-89
2023/03/31 09:15:01;;;;;;;14.63;1.77;;;;;;;22.55;39.82;94081.31;5058100;28;20067;-90
2023/03/31 09:17:41;;;;;;;17.23;2.35;;;;;;;22.65;39.76;94074.63;5037063;28;20432;-90
2023/03/31 09:20:21;;;;;;;11.32;2.40;;;;;;;21.94;41.02;94078.09;5037107;28;20427;-89
2023/03/31 09:23:12;;;;;;;15.68;2.35;;;;;;;21.58;41.02;94082.56;5039432;28;20025;-89
2023/03/31 09:25:40;;;;;;;8.52;1.60;;;;;;;21.60;40.99;94089.13;5038033;28;20346;-90
2023/03/31 09:28:19;;;;;;;12.57;2.15;;;;;;;22.18;40.21;94095.03;5035667;28;20112;-90
2023/03/31 09:30:48;;;;;;;14.23;2.10;;;;;;;22.48;39.29;94085.72;5022299;28;20423;-88
2023/03/31 09:33:17;;;;;;;6.40;1.42;;;;;;;21.91;41.29;94083.34;5036982;28;20030;-89
2023/03/31 09:35:42;;;;;;;13.93;2.20;;;;;;;21.53;41.40;94077.50;5038486;28;20385;-90
2023/03/31 09:38:12;;;;;;;16.65;2.47;;;;;;;21.76;40.80;94080.34;5036866;28;20045;-89
2023/03/31 09:40:38;;;;;;;7.63;1.88;;;;;;;21.73;40.72;94081.84;5037998;28;20040;-90
2023/03/31 09:43:12;;;;;;;13.40;2.83;;;;;;;22.42;40.15;94083.31;5036522;28;20033;-89
2023/03/31 09:45:38;;;;;;;10.23;1.88;;;;;;;22.29;40.74;94079.22;5035599;28;20037;-90
2023/03/31 09:48:08;;;;;;;6.63;1.55;;;;;;;22.99;39.50;94074.13;5035917;28;20036;-90
2023/03/31 09:50:42;;;;;;;8.32;2.10;;;;;;;23.91;38.00;94063.81;5020912;28;20053;-90
2023/03/31 09:53:17;;;;;;;12.98;2.28;;;;;;;23.89;38.32;94066.06;5034550;28;20443;-90
2023/03/31 09:55:44;;;;;;;14.15;2.15;;;;;;;23.09;39.13;94076.22;5037932;28;20021;-90
2023/03/31 09:58:15;;;;;;;19.08;2.63;;;;;;;23.19;39.09;94072.19;5019977;28;20029;-90
2023/03/31 10:00:42;;;;;;;7.20;2.25;;;;;;;22.64;39.67;94069.66;5037416;28;20137;-90
2023/03/31 10:03:12;;;;;;;18.88;2.60;;;;;;;21.56;41.29;94055.50;5036417;28;20064;-90
2023/03/31 10:05:46;;;;;;;8.52;1.80;;;;;;;21.99;41.27;94056.50;5037331;28;20434;-89
2023/03/31 10:08:31;;;;;;;13.80;3.13;;;;;;;21.65;41.84;94041.97;5020151;28;20021;-90
2023/03/31 10:11:06;;;;;;;5.10;1.90;;;;;;;22.02;41.26;94034.47;5036257;28;20029;-90
2023/03/31 10:13:40;;;;;;;15.50;2.35;;;;;;;18.67;46.77;94038.03;5022988;28;20026;-91
2023/03/31 10:16:11;;;;;;;11.18;2.05;;;;;;;19.34;46.34;94028.13;5037145;28;20052;-89
2023/03/31 10:18:42;;;;;;;14.73;2.55;;;;;;;20.20;45.27;94017.78;5001316;28;20025;-90
2023/03/31 10:21:21;;;;;;;13.35;2.65;;;;;;;21.96;42.23;94011.09;5016062;28;20030;-90
2023/03/31 10:23:47;;;;;;;8.30;1.98;;;;;;;21.09;43.28;94019.72;5018284;28;20022;-89
2023/03/31 10:26:17;;;;;;;13.32;2.35;;;;;;;21.30;44.18;94009.59;4999749;28;20060;-89
2023/03/31 10:28:43;;;;;;;13.48;1.98;;;;;;;22.64;42.80;93998.34;5017992;28;20343;-89
2023/03/31 10:31:10;;;;;;;10.40;1.92;;;;;;;23.11;40.19;93993.06;5016064;28;20030;-91
2023/03/31 10:33:43;;;;;;;10.85;2.33;;;;;;;23.19;41.65;93991.28;5016623;28;20166;-89
2023/03/31 10:36:19;;;;;;;11.05;2.50;;;;;;;24.00;39.19;93984.81;4999792;28;20029;-90
2023/03/31 10:38:45;;;;;;;7.57;2.10;;;;;;;24.53;37.95;93982.38;5034963;28;20454;-90
2023/03/31 10:41:17;;;;;;;8.82;2.35;;;;;;;23.18;39.40;93985.13;4999623;28;20026;-91
2023/03/31 10:43:48;;;;;;;10.50;2.28;;;;;;;22.65;40.06;93973.19;5001272;28;20131;-89
2023/03/31 10:46:13;;;;;;;16.67;2.67;;;;;;;22.32;39.34;93955.78;5016181;28;20088;-90
2023/03/31 10:48:42;;;;;;;9.50;2.28;;;;;;;22.46;39.89;93958.72;5017396;28;20022;-89
2023/03/31 10:51:19;;;;;;;10.98;2.25;;;;;;;23.34;39.21;93942.28;5015954;28;20473;-90
2023/03/31 10:53:50;;;;;;;11.98;2.67;;;;;;;23.05;39.13;93922.34;5001458;28;20056;-90
2023/03/31 10:56:46;;;;;;;10.65;2.28;;;;;;;22.92;38.91;93927.09;4999540;28;20160;-91
2023/03/31 10:59:40;;;;;;;4.65;1.75;;;;;;;22.25;41.33;93926.31;5015665;28;20109;-89
2023/03/31 11:02:37;;;;;;;8.23;1.60;;;;;;;23.26;40.86;93916.53;5015796;28;20510;-90
2023/03/31 11:05:27;;;;;;;7.25;1.98;;;;;;;23.25;42.51;93901.66;5029294;28;20025;-90
2023/03/31 11:08:11;;;;;;;8.63;1.95;;;;;;;22.85;42.55;93887.69;5018820;28;20331;-90
2023/03/31 11:10:39;;;;;;;5.45;1.73;;;;;;;23.16;40.94;93883.19;5036375;28;20116;-91
2023/03/31 11:13:22;;;;;;;10.50;1.95;;;;;;;23.74;41.17;93884.00;5015671;28;20026;-89
2023/03/31 11:16:04;;;;;;;6.32;1.90;;;;;;;23.94;42.71;93884.63;5002295;28;20367;-90
2023/03/31 11:18:38;;;;;;;5.63;1.80;;;;;;;22.83;41.47;93874.69;5015543;28;20498;-90
2023/03/31 11:21:46;;;;;;;9.20;2.05;;;;;;;20.31;47.42;93871.78;5015556;28;20025;-89
2023/03/31 11:24:48;;;;;;;8.65;1.83;;;;;;;22.25;43.38;93860.34;4906017;29;20421;-90
2023/03/31 11:27:34;;;;;;;9.40;1.85;;;;;;;21.08;44.20;93874.38;4921294;29;20122;-90
2023/03/31 11:30:19;;;;;;;6.18;1.88;;;;;;;19.67;47.71;93874.25;4990298;28;20091;-89
2023/03/31 11:33:00;;;;;;;9.40;1.90;;;;;;;21.46;44.67;93865.72;5022890;28;20032;-89
2023/03/31 11:36:08;;;;;;;10.18;1.92;;;;;;;21.19;46.00;93859.41;5018992;28;20022;-91
2023/03/31 11:38:39;;;;;;;11.93;2.38;;;;;;;22.42;44.13;93866.34;5044461;28;20524;-90
2023/03/31 11:41:11;;;;;;;10.95;2.53;;;;;;;22.59;44.09;93876.63;5055917;28;20346;-89
2023/03/31 11:43:47;;;;;;;8.93;2.42;;;;;;;20.60;45.52;93896.44;5036243;28;20021;-90
2023/03/31 11:46:24;;;;;;;12.73;2.25;;;;;;;20.14;45.63;93886.94;5032444;28;20409;-90